createdAt,value
2018-04-23T00:02:20.861Z,33.20
2018-04-23T00:04:49.635Z,29.80
2018-04-23T00:07:18.249Z,33.40
2018-04-23T00:09:47.086Z,35.00
2018-04-23T00:12:16.248Z,31.40
2018-04-23T00:14:44.804Z,32.00
2018-04-23T00:17:13.582Z,34.80
2018-04-23T00:19:42.376Z,33.40
2018-04-23T00:22:11.175Z,34.20
2018-04-23T00:24:40.063Z,32.60
2018-04-23T00:27:08.781Z,33.40
2018-04-23T00:29:37.768Z,35.00
2018-04-23T00:32:06.487Z,34.20
2018-04-23T00:34:35.225Z,35.80
2018-04-23T00:37:04.255Z,34.20
2018-04-23T00:42:28.672Z,34.40
2018-04-23T00:44:57.398Z,36.20
2018-04-23T00:47:25.825Z,34.40
2018-04-23T00:49:54.614Z,38.60
2018-04-23T00:52:23.552Z,38.40
2018-04-23T00:54:52.037Z,38.80
2018-04-23T00:57:20.860Z,40.00
2018-04-23T00:59:49.613Z,36.00
2018-04-23T01:02:18.543Z,40.80
2018-04-23T01:04:47.298Z,37.80
2018-04-23T01:07:16.169Z,38.80
2018-04-23T01:09:44.830Z,42.00
2018-04-23T01:12:13.741Z,37.40
2018-04-23T01:14:42.421Z,39.00
2018-04-23T01:17:11.085Z,40.00
2018-04-23T01:19:39.855Z,42.80
2018-04-23T01:22:08.690Z,40.00
2018-04-23T01:24:37.264Z,41.60
2018-04-23T01:27:06.354Z,40.60
2018-04-23T01:29:35.128Z,39.60
2018-04-23T01:32:03.794Z,39.00
2018-04-23T01:34:32.707Z,40.20
2018-04-23T01:37:01.597Z,36.00
2018-04-23T01:39:30.415Z,37.40
2018-04-23T01:41:59.269Z,39.80
2018-04-23T01:44:28.277Z,39.80
2018-04-23T01:46:57.152Z,37.40
2018-04-23T01:49:25.868Z,42.00
2018-04-23T01:51:54.546Z,41.00
2018-04-23T01:54:23.290Z,40.80
2018-04-23T01:56:52.454Z,41.40
2018-04-23T01:59:21.525Z,40.60
2018-04-23T02:01:50.320Z,39.20
2018-04-23T02:04:18.865Z,41.00
2018-04-23T02:06:47.765Z,39.60
2018-04-23T02:09:16.564Z,39.00
2018-04-23T02:11:45.068Z,36.40
2018-04-23T02:14:13.873Z,40.60
2018-04-23T02:16:42.874Z,37.60
2018-04-23T02:19:11.769Z,40.80
2018-04-23T02:24:52.437Z,37.20
2018-04-23T02:27:21.128Z,37.80
2018-04-23T02:29:49.967Z,40.40
2018-04-23T02:32:18.515Z,37.40
2018-04-23T02:34:47.620Z,39.60
2018-04-23T02:37:16.606Z,41.20
2018-04-23T02:39:45.402Z,36.80
2018-04-23T02:42:14.231Z,38.20
2018-04-23T02:44:43.172Z,37.00
2018-04-23T02:47:11.878Z,37.00
2018-04-23T02:49:40.850Z,36.60
2018-04-23T02:52:09.714Z,34.80
2018-04-23T02:54:38.226Z,35.80
2018-04-23T02:57:07.631Z,35.20
2018-04-23T02:59:36.521Z,34.40
2018-04-23T03:02:05.213Z,33.60
2018-04-23T03:04:34.067Z,36.40
2018-04-23T03:07:03.196Z,34.40
2018-04-23T03:09:31.717Z,34.40
2018-04-23T03:12:00.351Z,33.00
2018-04-23T03:14:29.201Z,33.20
2018-04-23T03:16:57.707Z,33.80
2018-04-23T03:19:26.490Z,33.00
2018-04-23T03:21:55.547Z,30.80
2018-04-23T03:24:24.296Z,28.40
2018-04-23T03:26:53.205Z,30.20
2018-04-23T03:29:21.785Z,30.80
2018-04-23T03:31:50.494Z,29.60
2018-04-23T03:34:19.260Z,30.20
2018-04-23T03:36:48.028Z,29.80
2018-04-23T03:39:16.856Z,32.40
2018-04-23T03:41:45.520Z,31.60
2018-04-23T03:44:14.233Z,30.20
2018-04-23T03:46:43.041Z,29.80
2018-04-23T03:49:12.080Z,30.20
2018-04-23T03:51:40.659Z,30.80
2018-04-23T03:54:09.494Z,27.80
2018-04-23T03:56:38.319Z,28.60
2018-04-23T03:59:08.065Z,31.00
2018-04-23T04:01:36.912Z,31.20
2018-04-23T04:04:05.894Z,30.20
2018-04-23T04:06:34.804Z,32.00
2018-04-23T04:09:04.164Z,29.60
2018-04-23T04:11:33.062Z,32.40
2018-04-23T04:17:02.889Z,31.00
2018-04-23T04:19:31.968Z,32.60
2018-04-23T04:22:00.674Z,31.80
2018-04-23T04:24:29.329Z,27.20
2018-04-23T04:26:57.931Z,30.20
2018-04-23T04:29:32.257Z,31.60
2018-04-23T04:32:00.990Z,32.40
2018-04-23T04:34:29.819Z,30.60
2018-04-23T04:36:58.419Z,28.20
2018-04-23T04:39:27.215Z,28.40
2018-04-23T04:41:55.971Z,29.60
2018-04-23T04:44:24.747Z,25.80
2018-04-23T04:46:53.589Z,24.20
2018-04-23T04:49:22.544Z,23.60
2018-04-23T04:51:51.374Z,26.40
2018-04-23T04:54:20.269Z,24.00
2018-04-23T04:56:49.193Z,25.80
2018-04-23T04:59:18.546Z,22.00
2018-04-23T05:01:47.174Z,22.20
2018-04-23T05:04:15.636Z,24.60
2018-04-23T05:06:44.310Z,22.40
2018-04-23T05:09:13.270Z,23.60
2018-04-23T05:11:41.853Z,21.40
2018-04-23T05:14:10.596Z,21.40
2018-04-23T05:16:39.352Z,21.00
2018-04-23T05:19:07.971Z,22.60
2018-04-23T05:21:36.722Z,21.60
2018-04-23T05:24:05.672Z,23.00
2018-04-23T05:26:34.532Z,21.60
2018-04-23T05:29:03.106Z,21.20
2018-04-23T05:31:31.695Z,20.80
2018-04-23T05:34:00.468Z,21.20
2018-04-23T05:36:29.066Z,25.00
2018-04-23T05:38:57.938Z,21.40
2018-04-23T05:41:26.587Z,22.00
2018-04-23T05:43:55.421Z,23.00
2018-04-23T05:46:24.725Z,20.80
2018-04-23T05:48:53.490Z,22.40
2018-04-23T05:51:22.686Z,23.00
2018-04-23T05:53:51.785Z,23.80
2018-04-23T05:56:20.610Z,26.00
2018-04-23T05:58:49.324Z,24.80
2018-04-23T06:01:18.015Z,23.40
2018-04-23T06:03:46.775Z,23.60
2018-04-23T06:06:15.822Z,22.40
2018-04-23T06:08:44.579Z,22.20
2018-04-23T06:11:13.044Z,20.60
2018-04-23T06:13:41.936Z,26.00
2018-04-23T06:16:10.617Z,23.00
2018-04-23T06:18:39.348Z,23.20
2018-04-23T06:21:08.637Z,19.80
2018-04-23T06:23:37.696Z,26.60
2018-04-23T06:26:07.273Z,23.40
2018-04-23T06:28:36.011Z,24.20
2018-04-23T06:35:43.828Z,24.80
2018-04-23T06:38:13.969Z,25.60
2018-04-23T06:40:42.705Z,21.80
2018-04-23T06:43:11.334Z,26.20
2018-04-23T06:45:40.745Z,24.80
2018-04-23T06:48:09.122Z,22.80
2018-04-23T06:50:38.165Z,25.00
2018-04-23T06:53:07.062Z,25.80
2018-04-23T06:55:36.528Z,28.40
2018-04-23T06:58:05.510Z,24.80
2018-04-23T07:00:34.251Z,23.20
2018-04-23T07:03:04.559Z,21.80
2018-04-23T07:05:33.616Z,24.00
2018-04-23T07:08:02.270Z,21.40
2018-04-23T07:10:30.900Z,20.40
2018-04-23T07:12:59.939Z,21.20
2018-04-23T07:15:29.011Z,21.40
2018-04-23T07:17:57.681Z,23.80
2018-04-23T07:20:26.733Z,23.00
2018-04-23T07:22:55.443Z,20.00
2018-04-23T07:25:24.055Z,20.60
2018-04-23T07:27:52.977Z,23.60
2018-04-23T07:30:21.955Z,22.60
2018-04-23T07:32:50.744Z,23.40
2018-04-23T07:35:19.387Z,20.40
2018-04-23T07:37:48.190Z,21.00
2018-04-23T07:40:16.899Z,22.80
2018-04-23T07:42:45.864Z,19.20
2018-04-23T07:45:14.667Z,20.40
2018-04-23T07:47:43.410Z,19.00
2018-04-23T07:50:12.013Z,21.00
2018-04-23T07:52:40.885Z,22.20
2018-04-23T07:55:09.530Z,22.00
2018-04-23T07:57:38.128Z,21.80
2018-04-23T08:00:07.311Z,23.00
2018-04-23T08:02:35.777Z,20.00
2018-04-23T08:05:04.573Z,18.40
2018-04-23T08:07:33.413Z,20.60
2018-04-23T08:10:01.848Z,21.40
2018-04-23T08:12:30.724Z,18.60
2018-04-23T08:14:59.459Z,19.00
2018-04-23T08:17:28.341Z,20.40
2018-04-23T08:19:57.211Z,21.60
2018-04-23T08:22:25.891Z,17.80
2018-04-23T08:24:54.835Z,14.60
2018-04-23T08:27:23.482Z,16.20
2018-04-23T08:29:52.170Z,16.00
2018-04-23T08:32:20.860Z,19.00
2018-04-23T08:34:49.649Z,18.40
2018-04-23T08:37:18.374Z,16.40
2018-04-23T08:39:47.491Z,18.60
2018-04-23T08:42:16.350Z,14.60
2018-04-23T08:44:45.066Z,17.00
2018-04-23T08:47:13.901Z,17.60
2018-04-23T08:49:42.816Z,17.40
2018-04-23T08:52:11.567Z,18.00
2018-04-23T08:54:41.134Z,16.00
2018-04-23T08:57:10.062Z,16.00
2018-04-23T08:59:38.763Z,16.80
2018-04-23T09:02:07.414Z,17.60
2018-04-23T09:04:37.780Z,14.60
2018-04-23T09:07:06.962Z,15.20
2018-04-23T09:09:35.901Z,17.20
2018-04-23T09:12:04.663Z,17.60
2018-04-23T09:14:33.741Z,16.20
2018-04-23T09:17:02.599Z,18.20
2018-04-23T09:19:31.102Z,14.60
2018-04-23T09:22:01.011Z,17.40
2018-04-23T09:24:30.072Z,15.20
2018-04-23T09:26:59.055Z,16.20
2018-04-23T09:29:28.131Z,18.40
2018-04-23T09:31:56.724Z,19.80
2018-04-23T09:34:25.859Z,15.80
2018-04-23T09:36:54.709Z,17.60
2018-04-23T09:39:23.539Z,15.20
2018-04-23T09:41:52.248Z,16.40
2018-04-23T09:44:20.900Z,14.60
2018-04-23T09:46:49.565Z,14.40
2018-04-23T09:49:18.629Z,18.20
2018-04-23T09:51:47.645Z,16.40
2018-04-23T09:54:16.719Z,15.60
2018-04-23T09:56:46.003Z,12.60
2018-04-23T09:59:14.591Z,13.80
2018-04-23T10:01:49.145Z,13.40
2018-04-23T10:04:21.725Z,16.80
2018-04-23T10:06:50.834Z,15.80
2018-04-23T10:09:19.517Z,16.00
2018-04-23T10:11:48.680Z,14.20
2018-04-23T10:14:17.774Z,12.60
2018-04-23T10:16:46.735Z,15.80
2018-04-23T10:19:15.869Z,40.20
2018-04-23T10:21:45.034Z,21.20
2018-04-23T10:24:13.852Z,16.40
2018-04-23T10:26:42.973Z,12.80
2018-04-23T10:29:11.598Z,15.80
2018-04-23T10:31:40.614Z,13.80
2018-04-23T10:34:09.466Z,15.00
2018-04-23T10:36:38.483Z,13.00
2018-04-23T10:39:07.984Z,13.20
2018-04-23T10:41:37.023Z,9.40
2018-04-23T10:44:05.596Z,14.20
2018-04-23T10:46:34.471Z,11.20
2018-04-23T10:49:04.796Z,13.00
2018-04-23T10:51:33.427Z,11.80
2018-04-23T10:54:02.394Z,12.00
2018-04-23T10:56:31.406Z,13.60
2018-04-23T10:59:00.868Z,12.00
2018-04-23T11:01:30.091Z,12.40
2018-04-23T11:03:59.147Z,12.60
2018-04-23T11:06:27.929Z,11.00
2018-04-23T11:08:56.775Z,10.40
2018-04-23T11:11:25.800Z,12.60
2018-04-23T11:13:54.457Z,9.80
2018-04-23T11:16:23.570Z,11.40
2018-04-23T11:18:52.282Z,13.00
2018-04-23T11:21:21.548Z,12.00
2018-04-23T11:23:50.507Z,11.40
2018-04-23T11:26:19.020Z,16.80
2018-04-23T11:28:58.633Z,15.60
2018-04-23T11:31:27.476Z,11.20
2018-04-23T11:33:56.093Z,12.80
2018-04-23T11:36:24.646Z,13.00
2018-04-23T11:38:53.701Z,13.80
2018-04-23T11:41:22.642Z,11.60
2018-04-23T11:43:51.267Z,15.00
2018-04-23T11:46:20.192Z,12.80
2018-04-23T11:48:49.181Z,14.40
2018-04-23T11:51:17.925Z,16.00
2018-04-23T11:53:46.488Z,14.00
2018-04-23T11:56:15.191Z,14.20
2018-04-23T11:58:44.270Z,12.20
2018-04-23T12:01:13.445Z,13.00
2018-04-23T12:03:42.295Z,14.40
2018-04-23T12:06:11.022Z,15.20
2018-04-23T12:08:39.666Z,12.40
2018-04-23T12:11:08.543Z,11.80
2018-04-23T12:13:37.637Z,15.80
2018-04-23T12:16:11.049Z,13.00
2018-04-23T12:18:39.986Z,13.80
2018-04-23T12:21:08.678Z,14.60
2018-04-23T12:23:37.505Z,13.40
2018-04-23T12:26:06.927Z,12.00
2018-04-23T12:28:36.483Z,14.80
2018-04-23T12:31:05.184Z,14.60
2018-04-23T12:33:34.022Z,16.40
2018-04-23T12:36:02.740Z,18.40
2018-04-23T12:38:31.484Z,15.40
2018-04-23T12:41:00.309Z,13.80
2018-04-23T12:43:29.053Z,14.20
2018-04-23T12:45:57.910Z,15.20
2018-04-23T12:48:27.454Z,14.20
2018-04-23T12:50:56.530Z,16.00
2018-04-23T12:53:25.325Z,18.80
2018-04-23T12:55:54.185Z,14.80
2018-04-23T12:58:23.037Z,16.60
2018-04-23T13:00:51.725Z,18.20
2018-04-23T13:03:20.702Z,14.40
2018-04-23T13:05:49.624Z,19.80
2018-04-23T13:08:18.134Z,20.20
2018-04-23T13:10:46.901Z,23.60
2018-04-23T13:13:15.619Z,22.80
2018-04-23T13:15:44.624Z,22.00
2018-04-23T13:18:13.461Z,21.60
2018-04-23T13:20:42.361Z,19.20
2018-04-23T13:23:11.469Z,18.40
2018-04-23T13:25:40.578Z,25.60
2018-04-23T13:28:08.987Z,21.60
2018-04-23T13:30:37.384Z,24.00
2018-04-23T13:33:06.251Z,24.40
2018-04-23T13:35:35.024Z,21.80
2018-04-23T13:38:03.653Z,18.20
2018-04-23T13:40:32.813Z,25.00
2018-04-23T13:43:01.460Z,24.20
2018-04-23T13:45:39.784Z,24.60
2018-04-23T13:48:09.068Z,23.20
2018-04-23T13:50:38.161Z,23.00
2018-04-23T13:53:07.266Z,22.60
2018-04-23T13:55:36.250Z,25.60
2018-04-23T13:58:05.255Z,23.20
2018-04-23T14:00:34.036Z,23.40
2018-04-23T14:03:02.708Z,26.60
2018-04-23T14:05:31.085Z,24.60
2018-04-23T14:07:59.521Z,24.20
2018-04-23T14:10:27.896Z,27.60
2018-04-23T14:12:56.347Z,26.60
2018-04-23T14:15:25.295Z,24.80
2018-04-23T14:20:47.896Z,29.60
2018-04-23T14:23:16.643Z,28.20
2018-04-23T14:25:45.319Z,35.40
2018-04-23T14:28:14.196Z,28.60
2018-04-23T14:30:42.866Z,29.20
2018-04-23T14:33:11.523Z,33.60
2018-04-23T14:35:40.593Z,37.00
2018-04-23T14:38:09.247Z,39.20
2018-04-23T14:40:37.957Z,41.20
2018-04-23T14:43:06.748Z,47.60
2018-04-23T14:45:35.335Z,50.00
2018-04-23T14:48:04.078Z,46.80
2018-04-23T14:50:33.143Z,54.20
2018-04-23T14:53:02.143Z,51.40
2018-04-23T14:55:30.977Z,73.00
2018-04-23T14:57:59.448Z,73.60
2018-04-23T15:00:28.277Z,76.20
2018-04-23T15:02:57.224Z,88.60
2018-04-23T15:05:25.945Z,89.20
2018-04-23T15:07:54.917Z,92.60
2018-04-23T15:10:23.731Z,77.40
2018-04-23T15:12:52.377Z,94.80
2018-04-23T15:15:21.364Z,147.60
2018-04-23T15:17:50.044Z,168.00
2018-04-23T15:20:18.610Z,148.75
2018-04-23T15:22:47.333Z,146.40
2018-04-23T15:25:16.257Z,136.60
2018-04-23T15:27:44.828Z,131.20
2018-04-23T15:30:13.595Z,131.80
2018-04-23T15:32:42.181Z,130.20
2018-04-23T15:35:10.950Z,132.20
2018-04-23T15:37:39.467Z,134.20
2018-04-23T15:40:08.588Z,140.40
2018-04-23T15:42:37.320Z,137.20
2018-04-23T15:45:06.216Z,134.80
2018-04-23T15:47:34.904Z,134.20
2018-04-23T15:50:03.568Z,134.40
2018-04-23T15:52:32.278Z,119.80
2018-04-23T15:55:01.270Z,97.80
2018-04-23T15:57:29.849Z,114.00
2018-04-23T15:59:58.645Z,109.60
2018-04-23T16:02:27.244Z,114.20
2018-04-23T16:04:55.668Z,101.00
2018-04-23T16:07:24.049Z,93.80
2018-04-23T16:09:53.201Z,92.60
2018-04-23T16:12:21.806Z,95.80
2018-04-23T16:14:50.377Z,89.80
2018-04-23T16:17:19.180Z,84.60
2018-04-23T16:19:47.626Z,88.40
2018-04-23T16:22:15.931Z,88.20
2018-04-23T16:24:44.288Z,87.60
2018-04-23T16:27:12.623Z,89.60
2018-04-23T16:29:41.309Z,87.80
2018-04-23T16:32:11.305Z,88.00
2018-04-23T16:34:39.942Z,81.00
2018-04-23T16:37:08.676Z,83.00
2018-04-23T16:39:37.733Z,88.00
2018-04-23T16:42:06.357Z,87.00
2018-04-23T16:44:39.415Z,78.60
2018-04-23T16:47:03.975Z,80.00
2018-04-23T16:49:32.569Z,85.00
2018-04-23T16:52:01.147Z,71.00
2018-04-23T16:54:29.725Z,70.00
2018-04-23T16:56:58.579Z,74.00
2018-04-23T16:59:27.600Z,68.00
2018-04-23T17:01:57.722Z,67.60
2018-04-23T17:04:26.640Z,70.00
2018-04-23T17:06:55.183Z,65.40
2018-04-23T17:09:24.061Z,72.00
2018-04-23T17:11:53.432Z,70.00
2018-04-23T17:14:22.613Z,73.80
2018-04-23T17:16:51.211Z,87.00
2018-04-23T17:19:20.036Z,83.80
2018-04-23T17:21:48.728Z,85.20
2018-04-23T17:24:17.531Z,86.00
2018-04-23T17:26:46.589Z,92.40
2018-04-23T17:29:15.248Z,92.20
2018-04-23T17:31:43.845Z,93.80
2018-04-23T17:34:12.921Z,107.60
2018-04-23T17:36:41.905Z,111.00
2018-04-23T17:39:10.619Z,113.00
2018-04-23T17:41:39.719Z,103.60
2018-04-23T17:44:08.646Z,98.20
2018-04-23T17:46:37.430Z,93.80
2018-04-23T17:49:07.850Z,84.60
2018-04-23T17:51:36.649Z,90.80
2018-04-23T17:54:05.542Z,82.80
2018-04-23T17:56:34.404Z,78.40
2018-04-23T18:01:24.791Z,79.00
2018-04-23T18:03:53.819Z,78.80
2018-04-23T18:06:22.785Z,80.40
2018-04-23T18:08:51.376Z,72.80
2018-04-23T18:11:20.295Z,77.80
2018-04-23T18:13:48.961Z,71.60
2018-04-23T18:16:17.716Z,83.80
2018-04-23T18:18:46.824Z,181.60
2018-04-23T18:21:15.479Z,148.20
2018-04-23T18:23:44.319Z,152.40
2018-04-23T18:26:13.451Z,160.00
2018-04-23T18:28:42.569Z,133.40
2018-04-23T18:31:10.979Z,123.00
2018-04-23T18:33:39.883Z,134.80
2018-04-23T18:36:08.966Z,138.00
2018-04-23T18:38:37.699Z,140.00
2018-04-23T18:41:06.386Z,135.40
2018-04-23T18:43:35.215Z,125.60
2018-04-23T18:46:04.024Z,185.20
2018-04-23T18:48:32.675Z,277.00
2018-04-23T18:51:02.536Z,232.75
2018-04-23T18:53:31.211Z,229.25
2018-04-23T18:56:00.057Z,201.50
2018-04-23T18:58:29.136Z,219.25
2018-04-23T19:00:58.180Z,183.75
2018-04-23T19:03:27.265Z,202.50
2018-04-23T19:05:56.056Z,238.25
2018-04-23T19:08:24.839Z,197.75
2018-04-23T19:10:53.692Z,188.50
2018-04-23T19:13:22.824Z,182.20
2018-04-23T19:15:51.407Z,181.80
2018-04-23T19:18:20.032Z,167.20
2018-04-23T19:20:48.966Z,154.20
2018-04-23T19:23:17.973Z,114.80
2018-04-23T19:25:46.718Z,117.60
2018-04-23T19:28:15.703Z,120.40
2018-04-23T19:30:44.588Z,112.00
2018-04-23T19:33:13.097Z,125.00
2018-04-23T19:35:41.898Z,124.80
2018-04-23T19:38:10.668Z,129.00
2018-04-23T19:40:39.409Z,125.80
2018-04-23T19:43:08.235Z,114.40
2018-04-23T19:45:37.111Z,108.80
2018-04-23T19:48:05.847Z,107.00
2018-04-23T19:50:34.920Z,102.60
2018-04-23T19:53:04.271Z,103.20
2018-04-23T19:55:33.080Z,115.20
2018-04-23T19:58:01.627Z,108.60
2018-04-23T20:00:30.577Z,137.60
2018-04-23T20:02:59.219Z,151.60
2018-04-23T20:05:28.139Z,144.60
2018-04-23T20:07:56.645Z,192.75
2018-04-23T20:10:25.427Z,161.60
2018-04-23T20:12:54.254Z,143.60
2018-04-23T20:15:22.959Z,115.00
2018-04-23T20:17:51.731Z,104.60
2018-04-23T20:20:20.391Z,95.80
2018-04-23T20:22:49.273Z,95.80
2018-04-23T20:25:18.160Z,97.80
2018-04-23T20:27:46.839Z,97.80
2018-04-23T20:30:15.304Z,86.80
2018-04-23T20:32:44.273Z,92.60
2018-04-23T20:35:13.172Z,102.60
2018-04-23T20:37:41.909Z,86.20
2018-04-23T20:40:10.836Z,79.80
2018-04-23T20:42:39.649Z,85.00
2018-04-23T20:45:08.254Z,83.60
2018-04-23T20:47:37.152Z,73.00
2018-04-23T20:50:06.099Z,71.40
2018-04-23T20:52:34.851Z,66.40
2018-04-23T20:55:03.850Z,79.00
2018-04-23T20:57:33.058Z,71.60
2018-04-23T21:00:02.393Z,66.00
2018-04-23T21:02:30.979Z,70.40
2018-04-23T21:04:59.729Z,69.40
2018-04-23T21:07:33.963Z,71.60
2018-04-23T21:10:02.863Z,78.20
2018-04-23T21:12:31.763Z,73.20
2018-04-23T21:15:00.356Z,81.20
2018-04-23T21:17:29.286Z,77.40
2018-04-23T21:19:57.798Z,73.00
2018-04-23T21:22:26.355Z,71.20
2018-04-23T21:24:55.377Z,71.20
2018-04-23T22:09:16.708Z,129.40
2018-04-23T22:11:45.297Z,120.40
2018-04-23T22:14:14.259Z,102.00
2018-04-23T22:16:43.488Z,104.00
2018-04-23T22:19:12.622Z,86.00
2018-04-23T22:21:41.461Z,85.00
2018-04-23T22:24:10.443Z,82.60
2018-04-23T22:26:39.344Z,90.20
2018-04-23T22:29:08.182Z,84.80
2018-04-23T22:31:36.886Z,68.80
2018-04-23T22:34:05.628Z,77.40
2018-04-23T22:36:34.232Z,70.20
2018-04-23T22:39:02.924Z,64.40
2018-04-23T22:41:31.676Z,65.20
2018-04-23T22:44:00.362Z,54.80
2018-04-23T22:46:29.412Z,56.00
2018-04-23T22:48:57.983Z,52.40
2018-04-23T22:51:26.761Z,53.20
2018-04-23T22:53:55.664Z,53.00
2018-04-23T22:56:24.397Z,53.40
2018-04-23T22:58:53.204Z,52.40
2018-04-23T23:01:22.250Z,52.80
2018-04-23T23:03:50.611Z,53.40
2018-04-23T23:06:19.235Z,50.80
2018-04-23T23:08:47.928Z,52.60
2018-04-23T23:11:17.278Z,52.00
2018-04-23T23:13:46.261Z,50.00
2018-04-23T23:16:14.917Z,51.00
2018-04-23T23:18:43.830Z,47.60
2018-04-23T23:21:12.251Z,49.40
2018-04-23T23:23:40.961Z,49.60
2018-04-23T23:26:10.250Z,46.40
2018-04-23T23:28:39.021Z,49.80
2018-04-23T23:31:07.644Z,50.20
2018-04-23T23:33:36.494Z,50.20
2018-04-23T23:36:04.952Z,48.20
2018-04-23T23:38:33.877Z,42.20
2018-04-23T23:57:34.445Z,47.40
